Pagrindinis puslapis
METAR-TAF:

METAR-TAF

Oro uostai :

Danbury Municipal Airport

Danbury, Konektikutas, Jungtinės Amerikos Valstijos

platuma: 41-22-18N, ilguma: 073-29-04W, Aukštis: 139 m

Dabartinis oras

Ataskaita buvo paskelbta 19 minutes, ne 05:53 UTC
Vėjas 11 kt iš Vakarų su gūsio iki 19 kt
Temperatūra -2°C
Drėgmė 43%
Slėgis 1008 hPa
Matomumas: 16.1 km
Apsiniaukę ne aukštis 6000 ft

METAR: KDXR 280553Z AUTO 26011G19KT 10SM OVC060 M02/M13 A2976 RMK AO2 PK WND 26027/0503 SLP082 T10221133 10000 21022 53010

Laikas: 01:12 (06:12 UTC)


TAF: trūkstamas

Orai ataskaitas ir orų prognozės (METAR, TAF).

turimą stotys yra geltonos ir raudonos taškus žemėlapyje.

Perkelti pele per norėdami pamatyti stoties vardą.

Tada spustelėkite, norėdami matyti oro stebėjimo ir prognozės.

Norėdami pakeisti žemėlapį: spustelėkite ant žalios mygtukų su juodo kryžiaus žemyn,; žalią mygtuką su brūkšneliu, jei norite nutolinti; arba žalių rodyklių gretimoms žemėlapius.


METAR-TAF: